Time;durP1;ratioP1;P1;durP2;ratioP2;P2;SDS_P1;SDS_P2;PMS_P1;PMS_P2;Temp;Humidity;BMP_temperature;BMP_pressure;BME280_temperature;BME280_humidity;BME280_pressure;Samples;Min_cycle;Max_cycle;Signal;HPM_P1;HPM_P2
2022/01/09 00:00:37;;;;;;;19.80;5.65;;;;;;;2.34;100.00;148256.02;1695662;84;21370;-58
2022/01/09 00:03:04;;;;;;;13.50;5.55;;;;;;;2.34;100.00;148254.75;1694879;84;21158;-58
2022/01/09 00:05:31;;;;;;;13.55;5.65;;;;;;;2.34;100.00;148256.02;1695043;84;21449;-62
2022/01/09 00:07:58;;;;;;;15.75;6.15;;;;;;;2.34;100.00;148254.75;1694955;84;21119;-62
2022/01/09 00:10:27;;;;;;;23.73;5.62;;;;;;;2.36;100.00;148259.91;1695347;84;21358;-62
2022/01/09 00:12:54;;;;;;;16.30;5.72;;;;;;;2.36;100.00;148259.91;1694732;84;21075;-62
2022/01/09 00:15:21;;;;;;;20.02;5.72;;;;;;;2.36;100.00;148259.91;1695386;84;20912;-62
2022/01/09 00:17:47;;;;;;;18.98;5.20;;;;;;;2.39;100.00;148267.63;1695118;84;21106;-62
2022/01/09 00:20:14;;;;;;;21.40;5.58;;;;;;;2.40;100.00;148270.20;1695707;84;21082;-62
2022/01/09 00:22:48;;;;;;;20.52;5.83;;;;;;;2.43;100.00;148277.94;1695511;84;21131;-57
2022/01/09 00:25:16;;;;;;;22.15;5.47;;;;;;;2.44;100.00;148280.52;1695483;84;20963;-58
2022/01/09 00:27:43;;;;;;;27.10;5.78;;;;;;;2.49;100.00;148293.41;1695725;84;21496;-57
2022/01/09 00:30:12;;;;;;;33.50;6.33;;;;;;;2.50;100.00;148295.97;1695478;84;21127;-63
2022/01/09 00:32:39;;;;;;;43.38;5.80;;;;;;;2.51;100.00;148298.56;1695187;84;21149;-62
2022/01/09 00:35:07;;;;;;;20.77;5.35;;;;;;;2.52;100.00;148299.88;1695530;84;21135;-63
2022/01/09 00:37:35;;;;;;;12.15;5.00;;;;;;;2.49;100.00;148293.41;1694996;84;20960;-63
2022/01/09 00:40:03;;;;;;;25.40;5.75;;;;;;;2.48;100.00;148289.56;1695522;84;21504;-63
2022/01/09 00:42:31;;;;;;;38.58;5.87;;;;;;;2.48;100.00;148290.83;1695622;84;21055;-64
2022/01/09 00:44:59;;;;;;;26.70;6.40;;;;;;;2.49;100.00;148293.41;1695280;84;21095;-62
2022/01/09 00:47:26;;;;;;;36.00;5.78;;;;;;;2.50;100.00;148294.72;1695740;84;21406;-63
2022/01/09 00:49:53;;;;;;;37.67;6.20;;;;;;;2.50;100.00;148295.97;1695630;84;21023;-62
2022/01/09 00:52:20;;;;;;;21.48;5.03;;;;;;;2.50;100.00;148295.97;1695972;84;21035;-63
2022/01/09 00:54:46;;;;;;;19.90;5.55;;;;;;;2.49;100.00;148293.41;1695386;84;21511;-62
2022/01/09 00:57:15;;;;;;;16.00;5.08;;;;;;;2.50;100.00;148294.72;1695776;83;21007;-62
2022/01/09 00:59:42;;;;;;;17.67;5.50;;;;;;;2.50;100.00;148294.72;1695450;84;22009;-62
2022/01/09 01:02:08;;;;;;;16.40;4.97;;;;;;;2.49;100.00;148293.41;1695810;84;21512;-62
2022/01/09 01:04:38;;;;;;;16.85;5.20;;;;;;;2.47;100.00;148288.25;1695308;83;20908;-63
2022/01/09 01:07:06;;;;;;;32.55;5.75;;;;;;;2.47;100.00;148286.98;1695377;84;20940;-63
2022/01/09 01:09:33;;;;;;;30.70;6.55;;;;;;;2.47;100.00;148288.25;1695543;84;20996;-62
2022/01/09 01:12:00;;;;;;;22.62;5.65;;;;;;;2.47;100.00;148286.98;1695248;84;21599;-63
2022/01/09 01:14:31;;;;;;;25.40;5.42;;;;;;;2.44;100.00;148280.52;1695444;84;21027;-62
2022/01/09 01:16:58;;;;;;;35.45;5.92;;;;;;;2.43;100.00;148277.94;1695433;84;21445;-62
2022/01/09 01:19:25;;;;;;;22.85;5.35;;;;;;;2.43;100.00;148279.25;1695586;84;20960;-62
2022/01/09 01:21:51;;;;;;;18.17;5.70;;;;;;;2.44;100.00;148280.52;1694954;84;21803;-62
2022/01/09 01:24:20;;;;;;;20.30;5.72;;;;;;;2.43;100.00;148277.94;1695443;84;21138;-63
2022/01/09 01:26:47;;;;;;;25.15;5.70;;;;;;;2.44;100.00;148280.52;1695057;84;21031;-62
2022/01/09 01:29:13;;;;;;;37.80;6.55;;;;;;;2.45;100.00;148281.83;1695656;84;21078;-62
2022/01/09 01:31:40;;;;;;;18.27;5.55;;;;;;;2.46;100.00;148285.67;1695397;84;21615;-62
2022/01/09 01:34:07;;;;;;;38.00;5.87;;;;;;;2.44;100.00;148280.52;1695488;84;21051;-63
2022/01/09 01:36:34;;;;;;;33.78;5.97;;;;;;;2.44;100.00;148280.52;1695741;84;21379;-63
2022/01/09 01:39:01;;;;;;;34.27;5.70;;;;;;;2.41;100.00;148272.78;1695456;84;21037;-63
2022/01/09 01:41:27;;;;;;;27.37;5.72;;;;;;;2.41;100.00;148272.78;1695819;84;21465;-62
2022/01/09 01:43:54;;;;;;;23.07;5.75;;;;;;;2.41;100.00;148272.78;1695163;84;21040;-62
2022/01/09 01:46:21;;;;;;;23.92;5.75;;;;;;;2.41;100.00;148272.78;1696101;84;21458;-58
2022/01/09 01:48:48;;;;;;;15.38;5.05;;;;;;;2.40;100.00;148271.47;1695347;84;21572;-58
2022/01/09 01:51:15;;;;;;;21.82;5.55;;;;;;;2.41;100.00;148272.78;1695559;84;21550;-62
2022/01/09 01:53:42;;;;;;;26.87;6.90;;;;;;;2.41;100.00;148272.78;1695308;84;21099;-63
2022/01/09 01:56:12;;;;;;;26.65;6.30;;;;;;;2.44;100.00;148280.52;1695395;84;21126;-59
2022/01/09 01:58:38;;;;;;;20.23;6.35;;;;;;;2.43;100.00;148279.25;1673057;84;21035;-59
2022/01/09 02:01:05;;;;;;;21.05;5.58;;;;;;;2.43;100.00;148277.94;1695607;84;21107;-63
2022/01/09 02:03:32;;;;;;;27.30;6.35;;;;;;;2.41;100.00;148272.78;1695701;84;21468;-63
2022/01/09 02:05:59;;;;;;;30.88;6.90;;;;;;;2.39;100.00;148267.63;1695343;84;21103;-58
2022/01/09 02:08:26;;;;;;;30.25;6.60;;;;;;;2.39;100.00;148267.63;1695406;84;21000;-62
2022/01/09 02:10:53;;;;;;;22.77;6.45;;;;;;;2.40;100.00;148270.20;1695277;84;21473;-62
2022/01/09 02:13:20;;;;;;;28.83;6.17;;;;;;;2.41;100.00;148272.78;1695725;84;21028;-62
2022/01/09 02:15:47;;;;;;;19.70;5.90;;;;;;;2.41;100.00;148272.78;1695569;84;20983;-58
2022/01/09 02:18:17;;;;;;;19.65;6.95;;;;;;;2.44;100.00;148280.52;1695288;84;21126;-58
2022/01/09 02:20:45;;;;;;;17.70;6.42;;;;;;;2.49;100.00;148292.14;1694830;84;21085;-58
2022/01/09 02:23:12;;;;;;;23.12;6.87;;;;;;;2.50;100.00;148295.97;1695266;84;21087;-58
2022/01/09 02:25:39;;;;;;;27.42;7.15;;;;;;;2.51;100.00;148297.30;1695959;84;21769;-58
2022/01/09 02:28:06;;;;;;;15.85;6.45;;;;;;;2.49;100.00;148293.41;1694887;84;21785;-58
2022/01/09 02:30:34;;;;;;;19.95;6.45;;;;;;;2.48;100.00;148290.83;1695703;84;20964;-57
2022/01/09 02:33:03;;;;;;;44.45;6.92;;;;;;;2.50;100.00;148295.97;1664179;86;21292;-58
2022/01/09 02:35:30;;;;;;;20.48;7.05;;;;;;;2.50;100.00;148295.97;1663596;85;21067;-59
2022/01/09 02:37:58;;;;;;;15.83;5.78;;;;;;;2.51;100.00;148298.56;1663796;85;22299;-58
2022/01/09 02:40:25;;;;;;;20.40;6.65;;;;;;;2.52;100.00;148301.13;1664339;86;20953;-57
2022/01/09 02:42:52;;;;;;;15.63;6.30;;;;;;;2.51;100.00;148298.56;1663951;85;21115;-58
2022/01/09 02:45:22;;;;;;;16.73;6.92;;;;;;;2.52;100.00;148301.13;1664399;86;20992;-58
2022/01/09 02:47:50;;;;;;;18.98;6.95;;;;;;;2.54;100.00;148306.34;1664501;85;22201;-58
2022/01/09 02:53:00;;;;;;;27.62;6.70;;;;;;;2.55;100.00;148308.91;1663822;86;21007;-58
2022/01/09 02:55:26;;;;;;;22.45;6.37;;;;;;;2.55;100.00;148308.91;1664259;85;20965;-59
2022/01/09 02:57:59;;;;;;;26.48;6.50;;;;;;;2.54;100.00;148305.02;1664000;86;21722;-58
2022/01/09 03:00:31;;;;;;;20.65;6.65;;;;;;;2.54;100.00;148306.34;1664585;86;20900;-58
2022/01/09 03:02:59;;;;;;;26.97;6.97;;;;;;;2.57;100.00;148312.75;1664083;86;21807;-59
2022/01/09 03:05:28;;;;;;;17.23;5.70;;;;;;;2.56;100.00;148311.48;1664207;86;20940;-61
2022/01/09 03:07:54;;;;;;;19.62;6.37;;;;;;;2.57;100.00;148314.06;1663728;86;21046;-62
2022/01/09 03:10:22;;;;;;;24.92;6.62;;;;;;;2.60;100.00;148319.22;1664279;85;20956;-62
2022/01/09 03:12:49;;;;;;;18.73;5.47;;;;;;;2.59;100.00;148317.91;1663908;85;21039;-61
2022/01/09 03:15:16;;;;;;;19.75;6.03;;;;;;;2.61;100.00;148321.80;1664329;86;21126;-61
2022/01/09 03:17:43;;;;;;;20.15;6.67;;;;;;;2.61;100.00;148323.06;1663683;86;21063;-62
2022/01/09 03:20:14;;;;;;;19.05;5.97;;;;;;;2.61;100.00;148321.80;1663609;85;21085;-61
2022/01/09 03:22:41;;;;;;;26.10;6.30;;;;;;;2.63;100.00;148328.22;1663549;85;20928;-62
2022/01/09 03:25:09;;;;;;;30.08;6.30;;;;;;;2.64;100.00;148329.53;1663536;85;21315;-59
2022/01/09 03:27:40;;;;;;;18.75;6.30;;;;;;;2.62;100.00;148325.64;1663996;86;21346;-58
2022/01/09 03:30:09;;;;;;;23.62;7.00;;;;;;;2.63;100.00;148326.95;1663610;86;21075;-59
2022/01/09 03:32:37;;;;;;;22.00;5.95;;;;;;;2.65;100.00;148332.11;1664035;86;21379;-57
2022/01/09 03:35:08;;;;;;;18.50;6.45;;;;;;;2.66;100.00;148334.69;1663706;85;20968;-62
2022/01/09 03:37:36;;;;;;;16.30;6.45;;;;;;;2.64;100.00;148329.53;1663422;85;20958;-62
2022/01/09 03:40:08;;;;;;;19.55;6.35;;;;;;;2.63;100.00;148326.95;1663440;86;21820;-63
2022/01/09 03:42:34;;;;;;;17.98;6.95;;;;;;;2.61;100.00;148321.80;1664239;86;20976;-62
2022/01/09 03:45:01;;;;;;;18.55;6.42;;;;;;;2.62;100.00;148325.64;1663897;85;21007;-61
2022/01/09 03:47:27;;;;;;;14.60;5.72;;;;;;;2.66;100.00;148336.00;1664820;86;21021;-62
2022/01/09 03:49:54;;;;;;;17.52;5.80;;;;;;;2.70;100.00;148345.00;1663758;85;21070;-61
2022/01/09 03:52:26;;;;;;;21.15;6.60;;;;;;;2.69;100.00;148342.42;1664050;86;22329;-62
2022/01/09 03:54:49;;;;;;;19.25;6.00;;;;;;;2.68;100.00;148339.84;1663574;85;21086;-62
2022/01/09 03:57:15;;;;;;;17.55;6.03;;;;;;;2.68;100.00;148341.16;1663951;86;21003;-62
2022/01/09 03:59:42;;;;;;;12.63;5.37;;;;;;;2.68;100.00;148339.84;1663827;85;20950;-62
2022/01/09 04:02:10;;;;;;;17.95;6.20;;;;;;;2.70;100.00;148346.31;1663933;85;21115;-62
2022/01/09 04:04:37;;;;;;;16.87;6.60;;;;;;;2.69;100.00;148342.42;1664046;86;22397;-62
2022/01/09 04:07:04;;;;;;;13.90;5.92;;;;;;;2.72;100.00;148350.16;1663403;86;21635;-63
2022/01/09 04:09:39;;;;;;;16.02;5.78;;;;;;;2.70;100.00;148345.00;1664046;86;21506;-62
2022/01/09 04:12:30;;;;;;;15.93;5.67;;;;;;;2.70;100.00;148345.00;1663751;85;21059;-62
2022/01/09 04:14:39;;;;;;;15.83;5.67;;;;;;;2.69;100.00;148342.42;1661583;86;21012;-61
2022/01/09 04:17:08;;;;;;;15.32;5.67;;;;;;;2.71;100.00;148347.56;1663624;85;21116;-61
2022/01/09 04:19:34;;;;;;;27.42;5.42;;;;;;;2.75;100.00;148357.88;1663846;86;21105;-61
2022/01/09 04:22:02;;;;;;;16.30;4.80;;;;;;;2.80;100.00;148370.81;1663523;85;21101;-61
2022/01/09 04:24:29;;;;;;;11.08;4.70;;;;;;;2.81;100.00;148373.41;1664036;86;21072;-62
2022/01/09 04:26:58;;;;;;;14.28;5.75;;;;;;;2.81;100.00;148373.41;1663628;86;21066;-63
2022/01/09 04:29:24;;;;;;;15.10;5.35;;;;;;;2.81;100.00;148373.41;1643018;86;21491;-63
2022/01/09 04:31:52;;;;;;;11.73;5.10;;;;;;;2.84;100.00;148379.81;1663440;85;21040;-63
2022/01/09 04:34:18;;;;;;;11.78;4.45;;;;;;;2.84;100.00;148381.12;1664022;85;21850;-63
2022/01/09 04:36:45;;;;;;;14.40;4.90;;;;;;;2.83;100.00;148378.55;1663986;86;21015;-64
2022/01/09 04:39:12;;;;;;;11.30;4.50;;;;;;;2.84;100.00;148381.12;1664140;86;21122;-62
2022/01/09 04:41:39;;;;;;;11.80;4.47;;;;;;;2.83;100.00;148378.55;1664146;86;21946;-63
2022/01/09 04:44:05;;;;;;;10.93;4.97;;;;;;;2.84;100.00;148379.81;1669084;85;20999;-62
2022/01/09 04:46:43;;;;;;;18.23;5.37;;;;;;;2.85;100.00;148383.70;1670349;85;20893;-62
2022/01/09 04:49:04;;;;;;;13.88;5.05;;;;;;;2.91;100.00;148396.59;1674478;84;21130;-62
2022/01/09 04:51:31;;;;;;;12.03;4.47;;;;;;;2.96;100.00;148410.80;1675007;85;21007;-61
2022/01/09 04:53:58;;;;;;;13.93;4.20;;;;;;;3.00;100.00;148419.84;1674629;85;21114;-62
2022/01/09 04:56:25;;;;;;;13.58;4.67;;;;;;;3.00;100.00;148419.84;1675056;85;21437;-62
2022/01/09 04:58:51;;;;;;;12.00;5.05;;;;;;;3.02;100.00;148425.00;1674587;85;21233;-62
2022/01/09 05:01:18;;;;;;;15.53;5.08;;;;;;;3.01;100.00;148422.42;1674867;85;21819;-62
2022/01/09 05:03:45;;;;;;;13.93;4.45;;;;;;;3.00;100.00;148421.11;1644245;85;21062;-62
2022/01/09 05:06:11;;;;;;;13.30;5.03;;;;;;;3.00;100.00;148421.11;1644472;85;21621;-63
2022/01/09 05:08:38;;;;;;;14.43;4.92;;;;;;;3.00;100.00;148419.84;1674694;85;21128;-62
2022/01/09 05:11:05;;;;;;;20.37;5.85;;;;;;;2.99;100.00;148418.53;1643985;85;22149;-62
2022/01/09 05:13:31;;;;;;;14.60;6.00;;;;;;;3.00;100.00;148419.84;1644153;87;21070;-62
2022/01/09 05:16:00;;;;;;;15.18;5.28;;;;;;;3.04;100.00;148430.16;1644056;85;21688;-62
2022/01/09 05:18:26;;;;;;;16.32;5.97;;;;;;;3.07;100.00;148437.89;1675071;85;21350;-62
2022/01/09 05:20:53;;;;;;;16.32;6.55;;;;;;;3.15;100.00;148457.25;1674426;85;21070;-62
2022/01/09 05:23:20;;;;;;;16.10;5.62;;;;;;;3.20;100.00;148470.14;1675019;85;21150;-62
2022/01/09 05:25:47;;;;;;;14.28;5.85;;;;;;;3.22;100.00;148474.03;1674519;85;21030;-62
2022/01/09 05:28:13;;;;;;;15.75;5.80;;;;;;;3.23;100.00;148477.87;1674781;85;21079;-63
2022/01/09 05:30:40;;;;;;;21.65;6.45;;;;;;;3.25;100.00;148481.77;1674744;85;21448;-62
2022/01/09 05:33:07;;;;;;;12.95;6.37;;;;;;;3.27;100.00;148486.94;1674419;85;21028;-64
2022/01/09 05:35:34;;;;;;;15.23;5.60;;;;;;;3.32;100.00;148499.81;1674870;85;21413;-62
2022/01/09 05:38:01;;;;;;;17.07;5.92;;;;;;;3.34;100.00;148504.97;1674683;85;21517;-62
2022/01/09 05:40:28;;;;;;;15.32;6.20;;;;;;;3.34;100.00;148504.97;1674943;85;20916;-63
2022/01/09 05:42:55;;;;;;;11.63;5.50;;;;;;;3.34;100.00;148504.97;1679789;84;21460;-64
2022/01/09 05:45:22;;;;;;;15.43;6.15;;;;;;;3.35;100.00;148507.56;1695680;84;21674;-62
2022/01/09 05:47:49;;;;;;;17.80;6.92;;;;;;;3.38;100.00;148515.30;1695381;84;21686;-59
2022/01/09 05:50:17;;;;;;;13.32;5.90;;;;;;;3.36;100.00;148510.14;1695428;84;37571;-63
2022/01/09 05:52:43;;;;;;;19.65;6.65;;;;;;;3.34;100.00;148504.97;1695537;84;21003;-63
2022/01/09 05:55:11;;;;;;;16.85;6.97;;;;;;;3.32;100.00;148499.81;1695247;84;21094;-62
2022/01/09 05:57:38;;;;;;;21.15;7.10;;;;;;;3.31;100.00;148497.25;1695408;84;21008;-62
2022/01/09 06:00:08;;;;;;;20.82;7.20;;;;;;;3.34;100.00;148504.97;1695100;84;21051;-62
2022/01/09 06:02:36;;;;;;;22.40;7.60;;;;;;;3.36;100.00;148253.59;1695020;84;21020;-62
2022/01/09 06:05:07;;;;;;;23.73;8.20;;;;;;;3.36;100.00;146975.14;1695446;84;21066;-62
2022/01/09 06:07:34;;;;;;;20.37;7.33;;;;;;;3.36;100.00;143452.39;1695901;84;21958;-62
2022/01/09 06:10:00;;;;;;;15.03;6.37;;;;;;;3.33;100.00;140260.81;1695223;84;21520;-63
2022/01/09 06:12:27;;;;;;;20.05;7.33;;;;;;;3.31;100.00;135113.97;1695931;84;21528;-63
2022/01/09 06:14:54;;;;;;;22.87;8.55;;;;;;;3.29;100.00;130660.16;1695296;84;21477;-64
2022/01/09 06:17:21;;;;;;;14.58;6.60;;;;;;;3.32;100.00;124683.70;1695668;84;21618;-63
2022/01/09 06:19:48;;;;;;;16.62;6.58;;;;;;;3.32;100.00;119052.66;1695373;84;21164;-62
2022/01/09 06:22:18;;;;;;;16.52;6.60;;;;;;;3.33;100.00;112751.73;1695522;84;21027;-63
2022/01/09 06:24:52;;;;;;;19.95;8.33;;;;;;;3.33;100.00;109689.50;1695549;83;21028;-62
2022/01/09 06:27:20;;;;;;;15.88;6.30;;;;;;;3.33;100.00;106120.28;1695619;84;21421;-62
2022/01/09 06:29:47;;;;;;;15.60;6.33;;;;;;;3.32;100.00;100686.72;1695371;84;21508;-63
2022/01/09 06:32:14;;;;;;;18.45;7.50;;;;;;;3.33;100.00;98144.39;1695473;84;21128;-63
2022/01/09 06:34:42;;;;;;;15.55;6.05;;;;;;;3.33;100.00;95095.80;1695708;84;20956;-61
2022/01/09 06:37:10;;;;;;;12.30;6.05;;;;;;;3.38;100.00;88843.70;1695202;84;21559;-62
2022/01/09 06:39:37;;;;;;;13.30;6.37;;;;;;;3.43;100.00;83276.25;1695768;84;21094;-62
2022/01/09 06:42:04;;;;;;;13.68;6.62;;;;;;;3.43;100.00;81083.44;1695213;84;21453;-62
2022/01/09 06:44:31;;;;;;;13.58;6.30;;;;;;;3.45;100.00;79736.34;1692678;84;21870;-62
2022/01/09 06:46:57;;;;;;;15.23;6.65;;;;;;;3.46;100.00;79063.32;1691302;84;21082;-63
2022/01/09 06:49:24;;;;;;;13.18;6.85;;;;;;;3.48;100.00;77885.47;1691757;84;21080;-62
2022/01/09 06:51:52;;;;;;;19.12;7.25;;;;;;;3.50;100.00;75529.45;1691273;84;21610;-62
2022/01/09 06:54:19;;;;;;;19.90;8.10;;;;;;;3.52;100.00;73679.86;1691833;84;21552;-58
2022/01/09 06:56:46;;;;;;;20.72;8.08;;;;;;;3.53;100.00;72671.88;1691646;83;21126;-58
2022/01/09 06:59:12;;;;;;;21.82;8.48;;;;;;;3.55;100.00;70823.03;1691591;84;21468;-58
2022/01/09 07:01:40;;;;;;;21.02;8.53;;;;;;;3.55;100.00;69813.93;1691768;84;21008;-62
2022/01/09 07:04:06;;;;;;;19.92;8.98;;;;;;;3.58;100.00;67800.22;1691555;84;20995;-62
2022/01/09 07:06:35;;;;;;;22.58;9.20;;;;;;;3.60;100.00;65282.46;1691931;83;21437;-62
2022/01/09 07:09:03;;;;;;;19.27;8.15;;;;;;;3.63;100.00;63606.77;1691538;83;21532;-63
2022/01/09 07:11:30;;;;;;;24.50;9.50;;;;;;;3.64;100.00;62432.41;1691852;84;21489;-58
2022/01/09 07:13:57;;;;;;;21.52;8.55;;;;;;;3.65;100.00;61930.65;1691364;83;21089;-58
2022/01/09 07:16:24;;;;;;;22.27;8.98;;;;;;;3.66;100.00;61425.77;1686701;84;21095;-58
2022/01/09 07:18:51;;;;;;;23.42;9.58;;;;;;;3.66;100.00;60544.07;1690645;83;21180;-59
2022/01/09 07:21:18;;;;;;;26.50;10.55;;;;;;;3.65;100.00;59823.67;1691101;83;21569;-58
2022/01/09 07:23:47;;;;;;;26.65;9.18;;;;;;;3.66;100.00;58662.85;1686297;84;21067;-58
2022/01/09 07:26:20;;;;;;;22.60;9.63;;;;;;;3.67;100.00;57069.84;1691131;84;21055;-58
2022/01/09 07:28:46;;;;;;;20.37;9.45;;;;;;;3.68;100.00;55731.11;1690755;84;21126;-58
2022/01/09 07:31:13;;;;;;;22.32;8.85;;;;;;;3.69;100.00;54056.99;1690965;84;21647;-58
2022/01/09 07:33:39;;;;;;;21.42;9.80;;;;;;;3.68;100.00;52550.09;1690979;84;21139;-59
2022/01/09 07:36:06;;;;;;;25.37;9.70;;;;;;;3.70;100.00;51213.45;1691082;84;21612;-58
2022/01/09 07:38:33;;;;;;;25.10;9.85;;;;;;;3.72;100.00;49040.80;1691824;84;20896;-57
2022/01/09 07:41:00;;;;;;;26.50;10.85;;;;;;;3.72;100.00;47704.07;1691361;84;21135;-57
2022/01/09 07:43:27;;;;;;;28.40;11.65;;;;;;;3.75;100.00;45700.95;1659848;85;20926;-57
2022/01/09 07:45:54;;;;;;;23.90;11.38;;;;;;;3.76;100.00;43197.76;1671432;85;21595;-57
2022/01/09 07:48:23;;;;;;;23.32;9.70;;;;;;;3.80;100.00;41531.82;1663931;85;21102;-58
2022/01/09 07:50:50;;;;;;;20.70;9.23;;;;;;;3.85;100.00;40201.14;1664225;85;21186;-57
2022/01/09 07:53:23;;;;;;;19.27;8.35;;;;;;;3.88;100.00;38702.65;1664250;86;21035;-58
2022/01/09 07:55:45;;;;;;;21.10;8.40;;;;;;;3.91;100.00;37370.96;1663941;85;20896;-57
2022/01/09 07:58:12;;;;;;;20.23;8.90;;;;;;;3.92;100.00;36039.03;1664372;86;21095;-59
2022/01/09 08:00:41;;;;;;;19.15;8.68;;;;;;;3.92;100.00;35206.19;1664058;86;21102;-58
2022/01/09 08:03:07;;;;;;;16.52;7.87;;;;;;;3.94;100.00;34541.36;1664146;86;21015;-58
2022/01/09 08:05:35;;;;;;;20.05;8.18;;;;;;;3.97;100.00;33710.43;1664269;86;20968;-58
2022/01/09 08:08:02;;;;;;;19.80;7.92;;;;;;;3.98;100.00;33045.49;1663992;86;20979;-59
2022/01/09 08:10:29;;;;;;;17.40;7.45;;;;;;;4.00;100.00;32214.52;1664598;86;21493;-58
2022/01/09 08:12:56;;;;;;;21.97;8.03;;;;;;;4.03;100.00;31384.00;1663869;86;21084;-59
2022/01/09 08:15:23;;;;;;;17.27;7.75;;;;;;;4.09;100.00;29723.94;1664395;85;21466;-59
2022/01/09 08:17:53;;;;;;;17.30;7.47;;;;;;;4.13;100.00;28728.35;1664228;86;21059;-59
2022/01/09 08:20:19;;;;;;;16.65;8.10;;;;;;;4.18;100.00;27899.45;1664336;86;21043;-59
2022/01/09 08:22:46;;;;;;;16.75;8.08;;;;;;;4.24;100.00;26905.18;1664000;86;20932;-57
2022/01/09 08:25:14;;;;;;;17.60;7.67;;;;;;;4.27;100.00;26740.50;1664070;86;21087;-57
2022/01/09 08:27:42;;;;;;;14.85;7.53;;;;;;;4.33;100.00;26078.45;1664328;86;20992;-57
2022/01/09 08:30:10;;;;;;;17.10;7.25;;;;;;;4.39;100.00;25250.24;1664123;86;21035;-58
2022/01/09 08:32:38;;;;;;;15.10;6.90;;;;;;;4.44;100.00;24920.32;1664279;86;21024;-58
2022/01/09 08:35:06;;;;;;;12.47;6.20;;;;;;;4.50;100.00;24590.85;1664372;86;21792;-59
2022/01/09 08:37:34;;;;;;;13.53;6.70;;;;;;;4.53;100.00;24592.29;1664855;86;20921;-58
2022/01/09 08:40:01;;;;;;;12.70;6.62;;;;;;;4.56;100.00;24925.86;1663956;86;21024;-58
2022/01/09 08:42:28;;;;;;;14.15;6.78;;;;;;;4.56;100.00;25590.75;1664368;85;21064;-57
2022/01/09 08:44:54;;;;;;;14.87;6.40;;;;;;;4.57;100.00;26256.52;1664021;86;21125;-57
2022/01/09 08:47:24;;;;;;;14.35;7.08;;;;;;;4.61;100.00;26092.00;1664454;86;21129;-58
2022/01/09 08:49:50;;;;;;;12.15;6.22;;;;;;;4.65;100.00;25262.44;1664188;85;21019;-58
2022/01/09 08:52:19;;;;;;;14.15;6.85;;;;;;;4.69;100.00;24931.89;1664243;86;21101;-57
2022/01/09 08:54:46;;;;;;;15.32;6.80;;;;;;;4.72;100.00;24933.34;1664015;86;21014;-57
2022/01/09 08:57:14;;;;;;;17.98;7.22;;;;;;;4.77;100.00;24769.26;1663810;86;21131;-58
2022/01/09 08:59:41;;;;;;;13.05;6.17;;;;;;;4.83;100.00;24273.38;1663836;86;21449;-57
2022/01/09 09:02:07;;;;;;;15.48;8.00;;;;;;;4.87;100.00;23942.78;1663690;86;21155;-57
2022/01/09 09:04:34;;;;;;;14.45;6.83;;;;;;;4.88;100.00;24608.50;1645465;86;20952;-57
2022/01/09 09:07:01;;;;;;;11.83;6.47;;;;;;;4.93;100.00;24278.09;1663640;85;21575;-58
2022/01/09 09:09:28;;;;;;;13.43;6.10;;;;;;;4.96;100.00;24612.08;1664163;86;21044;-59
2022/01/09 09:11:54;;;;;;;12.75;6.33;;;;;;;4.97;100.00;25277.57;1663392;86;21585;-58
2022/01/09 09:14:22;;;;;;;13.20;6.35;;;;;;;4.96;100.00;26275.19;1663707;85;20991;-58
2022/01/09 09:16:50;;;;;;;12.37;6.17;;;;;;;4.99;100.00;26276.71;1663998;86;21067;-58
2022/01/09 09:19:16;;;;;;;10.88;5.80;;;;;;;5.02;100.00;26611.03;1664158;86;21119;-59
2022/01/09 09:21:43;;;;;;;11.25;5.72;;;;;;;5.05;100.00;26778.72;1664216;85;21028;-59
2022/01/09 09:24:10;;;;;;;13.72;6.78;;;;;;;5.05;100.00;27777.42;1663933;86;21134;-57
2022/01/09 09:26:37;;;;;;;11.10;5.45;;;;;;;5.05;100.00;28443.66;1664254;86;20924;-58
2022/01/09 09:29:05;;;;;;;14.20;6.10;;;;;;;5.06;100.00;29110.32;1663869;85;21023;-58
2022/01/09 09:31:32;;;;;;;9.53;6.08;;;;;;;5.02;100.00;30607.26;1664357;85;21004;-58
2022/01/09 09:33:59;;;;;;;9.60;5.05;;;;;;;5.02;100.00;30440.66;1664190;86;20991;-58
2022/01/09 09:36:27;;;;;;;9.93;4.80;;;;;;;5.07;100.00;29776.84;1664184;86;21068;-58
2022/01/09 09:38:54;;;;;;;9.93;5.05;;;;;;;5.07;100.00;30276.91;1663866;86;21091;-58
2022/01/09 09:41:24;;;;;;;9.33;5.03;;;;;;;5.07;100.00;30776.77;1664101;85;21015;-57
2022/01/09 09:43:52;;;;;;;10.38;4.87;;;;;;;5.08;100.00;31110.64;1664929;85;20980;-58
2022/01/09 09:46:24;;;;;;;7.85;4.70;;;;;;;5.09;100.00;30777.65;1675126;85;21591;-63
2022/01/09 09:48:54;;;;;;;10.30;4.92;;;;;;;5.11;100.00;30279.20;1675063;85;22094;-62
2022/01/09 09:51:25;;;;;;;8.53;5.15;;;;;;;5.12;100.00;30779.39;1674849;85;21051;-58
2022/01/09 09:53:52;;;;;;;13.18;5.12;;;;;;;5.12;100.00;30779.39;1674494;85;21405;-59
2022/01/09 09:56:19;;;;;;;7.17;4.35;;;;;;;5.20;100.00;29450.96;1674727;84;21129;-58
2022/01/09 09:58:47;;;;;;;14.45;5.08;;;;;;;5.20;100.00;29450.96;1674801;84;20900;-62
2022/01/09 10:01:31;;;;;;;12.47;5.47;;;;;;;5.25;100.00;28620.51;1674770;85;21335;-57
2022/01/09 10:04:05;;;;;;;10.03;5.70;;;;;;;5.26;100.00;29121.09;1674996;85;21473;-59
2022/01/09 10:06:44;;;;;;;13.13;6.58;;;;;;;5.27;100.00;30287.78;1674936;85;21432;-63
2022/01/09 10:09:20;;;;;;;11.35;6.20;;;;;;;5.27;100.00;31121.18;1674625;85;21050;-63
2022/01/09 10:12:01;;;;;;;12.23;6.92;;;;;;;5.28;100.00;31955.39;1674340;85;21389;-59
2022/01/09 10:14:32;;;;;;;17.48;7.58;;;;;;;5.30;100.00;31956.89;1675257;85;21142;-57
2022/01/09 10:17:19;;;;;;;15.35;8.05;;;;;;;5.35;100.00;30292.35;1674687;84;21110;-63
2022/01/09 10:19:51;;;;;;;18.82;9.75;;;;;;;5.42;100.00;29629.34;1674826;85;20892;-58
2022/01/09 10:22:40;;;;;;;20.20;10.10;;;;;;;5.42;100.00;31296.72;1675018;85;21018;-58
2022/01/09 10:25:36;;;;;;;16.90;8.50;;;;;;;5.43;100.00;31797.61;1674665;85;21558;-58
2022/01/09 10:28:23;;;;;;;20.70;9.13;;;;;;;5.40;100.00;33797.34;1645538;85;21747;-63
2022/01/09 10:30:47;;;;;;;16.10;7.08;;;;;;;5.36;100.00;36632.61;1644811;85;21481;-62
2022/01/09 10:33:17;;;;;;;18.73;7.83;;;;;;;5.30;100.00;37798.32;1660961;85;21579;-57
2022/01/09 10:35:46;;;;;;;16.80;7.10;;;;;;;5.33;100.00;36129.97;1674834;84;21010;-57
2022/01/09 10:38:22;;;;;;;14.68;7.22;;;;;;;5.33;100.00;36129.97;1644527;85;21054;-58
2022/01/09 10:40:57;;;;;;;13.03;6.50;;;;;;;5.38;100.00;34297.02;1670563;84;21434;-58
2022/01/09 10:43:36;;;;;;;12.50;6.85;;;;;;;5.43;100.00;33632.36;1674935;85;21125;-58
2022/01/09 10:46:05;;;;;;;12.23;6.40;;;;;;;5.44;100.00;34634.36;1688444;84;21071;-58
2022/01/09 10:48:39;;;;;;;11.75;6.35;;;;;;;5.41;100.00;36135.32;1691888;84;20924;-58
2022/01/09 10:51:09;;;;;;;10.88;5.75;;;;;;;5.43;100.00;36971.40;1691529;84;21118;-60
2022/01/09 10:53:42;;;;;;;16.77;7.72;;;;;;;5.43;100.00;36971.40;1691670;84;21121;-57
2022/01/09 10:56:20;;;;;;;14.38;6.65;;;;;;;5.44;100.00;36805.05;1691369;84;21007;-58
2022/01/09 10:58:56;;;;;;;27.85;13.53;;;;;;;5.45;100.00;37473.93;1691892;84;20978;-57
2022/01/09 11:01:25;;;;;;;13.40;7.03;;;;;;;5.43;100.00;37807.04;1658419;86;21101;-57
2022/01/09 11:03:59;;;;;;;10.15;5.78;;;;;;;5.47;100.00;37140.84;1657942;86;21622;-58
2022/01/09 11:06:29;;;;;;;12.20;6.50;;;;;;;5.48;100.00;37141.53;1641632;87;21496;-58
2022/01/09 11:08:56;;;;;;;12.98;6.42;;;;;;;5.44;100.00;38476.12;1658258;86;21030;-59
2022/01/09 11:11:28;;;;;;;10.95;6.15;;;;;;;5.40;100.00;39977.55;1658131;86;21570;-57
2022/01/09 11:13:54;;;;;;;10.65;5.58;;;;;;;5.45;100.00;38476.83;1657314;85;21077;-58
2022/01/09 11:16:33;;;;;;;10.63;6.03;;;;;;;5.52;100.00;36142.35;1657950;84;21499;-59
2022/01/09 11:19:11;;;;;;;12.82;5.72;;;;;;;5.56;100.00;36311.73;1641105;87;21148;-58
2022/01/09 11:21:47;;;;;;;11.85;5.97;;;;;;;5.59;100.00;35812.98;1658155;86;21056;-59
2022/01/09 11:24:54;;;;;;;13.70;6.17;;;;;;;5.61;100.00;36482.14;1657809;86;21074;-58
2022/01/09 11:27:35;;;;;;;12.07;6.35;;;;;;;5.61;100.00;37484.64;1658100;86;21539;-58
2022/01/09 11:30:10;;;;;;;13.20;5.87;;;;;;;5.62;100.00;37819.58;1657595;86;22230;-59